Time;durP1;ratioP1;P1;durP2;ratioP2;P2;SDS_P1;SDS_P2;PMS_P1;PMS_P2;Temp;Humidity;BMP_temperature;BMP_pressure;BME280_temperature;BME280_humidity;BME280_pressure;Samples;Min_cycle;Max_cycle;Signal;HPM_P1;HPM_P2
2023/09/23 00:00:36;;;;;;;15.35;6.65;;;;;;;21.45;71.56;100019.09;5057702;28;20081;-83
2023/09/23 00:03:03;;;;;;;18.83;7.00;;;;;;;21.38;71.65;100029.44;5049032;28;20032;-83
2023/09/23 00:05:29;;;;;;;18.67;6.80;;;;;;;21.58;71.04;100028.38;5050211;28;20075;-83
2023/09/23 00:07:55;;;;;;;16.52;7.60;;;;;;;21.61;71.42;100016.94;5053836;28;20090;-83
2023/09/23 00:10:21;;;;;;;14.80;6.90;;;;;;;21.87;70.79;100043.72;5058065;28;20033;-83
2023/09/23 00:12:46;;;;;;;19.15;7.30;;;;;;;21.79;69.61;100028.09;5051735;28;20052;-83
2023/09/23 00:15:12;;;;;;;17.40;7.80;;;;;;;21.77;69.71;100035.72;5049112;28;20390;-83
2023/09/23 00:17:38;;;;;;;18.13;7.97;;;;;;;21.68;69.86;100013.88;5065755;28;20417;-84
2023/09/23 00:20:14;;;;;;;16.98;7.55;;;;;;;21.98;71.00;100047.88;5070919;28;20024;-83
2023/09/23 00:22:40;;;;;;;16.15;7.68;;;;;;;21.75;70.83;100016.22;5052737;28;20040;-84
2023/09/23 00:25:06;;;;;;;16.02;7.65;;;;;;;21.62;71.08;100025.91;5053739;28;20028;-83
2023/09/23 00:27:31;;;;;;;17.17;7.13;;;;;;;21.44;70.25;99984.09;5052385;28;20055;-83
2023/09/23 00:29:57;;;;;;;19.08;7.78;;;;;;;21.71;68.98;100026.03;5067330;28;20494;-83
2023/09/23 00:32:23;;;;;;;17.80;7.45;;;;;;;21.78;69.18;100038.16;5057485;28;20413;-83
2023/09/23 00:34:48;;;;;;;14.27;6.80;;;;;;;21.70;69.79;100024.41;5053537;28;20032;-84
2023/09/23 00:37:15;;;;;;;17.00;7.38;;;;;;;21.60;70.70;100030.81;5052074;28;20033;-84
2023/09/23 00:39:41;;;;;;;17.35;6.90;;;;;;;21.43;70.50;100009.59;5063591;28;20036;-83
2023/09/23 00:42:10;;;;;;;19.05;8.55;;;;;;;21.67;70.72;100032.03;5059906;28;20076;-84
2023/09/23 00:44:39;;;;;;;13.63;7.22;;;;;;;21.47;71.01;100016.06;5052314;28;20041;-83
2023/09/23 00:47:05;;;;;;;17.15;6.95;;;;;;;21.53;71.78;100052.88;5051798;28;20462;-84
2023/09/23 00:49:32;;;;;;;12.95;7.75;;;;;;;21.32;71.56;100019.75;5056987;28;20031;-83
2023/09/23 00:51:59;;;;;;;18.23;7.47;;;;;;;21.40;71.79;100038.09;5053149;28;20055;-83
2023/09/23 00:54:25;;;;;;;14.02;7.88;;;;;;;21.33;71.70;100043.09;5052088;28;20560;-85
2023/09/23 00:56:51;;;;;;;15.65;6.68;;;;;;;21.23;71.21;100027.75;5053899;28;20545;-83
2023/09/23 00:59:17;;;;;;;13.85;6.63;;;;;;;21.40;71.19;100031.88;5052683;28;20029;-83
2023/09/23 01:01:43;;;;;;;13.93;6.72;;;;;;;21.57;69.61;100048.47;5053136;28;20092;-83
2023/09/23 01:04:09;;;;;;;16.45;6.65;;;;;;;21.61;69.61;100044.06;5051352;28;20136;-83
2023/09/23 01:06:35;;;;;;;17.52;7.10;;;;;;;21.56;68.64;100049.59;5051715;28;20041;-83
2023/09/23 01:09:00;;;;;;;15.85;7.35;;;;;;;21.27;69.34;100028.78;5053644;28;20032;-83
2023/09/23 01:11:27;;;;;;;15.13;6.68;;;;;;;21.39;70.29;100044.63;5068935;28;20087;-83
2023/09/23 01:13:52;;;;;;;16.00;7.10;;;;;;;21.60;69.13;100053.31;5052685;28;20032;-86
2023/09/23 01:16:18;;;;;;;14.95;6.78;;;;;;;21.39;68.74;100046.50;5051556;28;20037;-84
2023/09/23 01:18:49;;;;;;;17.05;6.88;;;;;;;21.47;69.67;100040.47;5052845;28;20037;-83
2023/09/23 01:21:14;;;;;;;17.35;6.63;;;;;;;21.41;70.24;100041.59;5072193;28;20764;-83
2023/09/23 01:23:47;;;;;;;17.10;6.32;;;;;;;21.36;70.21;100028.13;5053016;28;20045;-83
2023/09/23 01:26:12;;;;;;;19.63;6.93;;;;;;;21.03;71.04;100017.16;5052763;28;20044;-84
2023/09/23 01:28:38;;;;;;;15.18;7.28;;;;;;;21.14;72.00;100024.03;5066580;28;20028;-83
2023/09/23 01:31:04;;;;;;;14.98;7.57;;;;;;;21.20;71.27;100039.16;5055653;28;20040;-84
2023/09/23 01:33:30;;;;;;;13.20;7.82;;;;;;;21.04;73.02;100040.44;5052399;28;20033;-83
2023/09/23 01:36:02;;;;;;;19.77;8.52;;;;;;;20.83;74.51;100029.81;5051432;28;20060;-83
2023/09/23 01:38:28;;;;;;;17.50;7.60;;;;;;;20.87;74.27;100036.28;5065384;28;20068;-83
2023/09/23 01:40:53;;;;;;;18.13;8.23;;;;;;;20.71;74.00;100029.41;5057336;28;20154;-83
2023/09/23 01:43:19;;;;;;;18.08;8.05;;;;;;;20.43;76.10;100037.25;5065958;28;20923;-83
2023/09/23 01:45:44;;;;;;;16.10;7.72;;;;;;;20.49;74.94;100046.13;5062648;28;20029;-83
2023/09/23 01:48:10;;;;;;;17.85;7.95;;;;;;;20.74;73.39;100044.28;5060387;28;20031;-84
2023/09/23 01:50:35;;;;;;;18.05;9.35;;;;;;;20.43;74.31;100012.88;5067105;28;20036;-84
2023/09/23 01:53:01;;;;;;;15.50;8.10;;;;;;;20.68;73.63;100027.31;5059815;28;20188;-83
2023/09/23 01:55:27;;;;;;;16.60;8.18;;;;;;;20.58;76.00;100021.97;5050903;28;20086;-84
2023/09/23 01:57:53;;;;;;;14.45;8.23;;;;;;;20.52;75.31;100032.03;5051563;28;20032;-84
2023/09/23 02:00:28;;;;;;;18.77;8.43;;;;;;;20.53;75.41;100047.19;5054577;28;20037;-84
2023/09/23 02:02:55;;;;;;;16.13;8.23;;;;;;;20.72;75.10;100039.19;5050714;28;20029;-83
2023/09/23 02:05:23;;;;;;;14.73;8.25;;;;;;;20.55;75.24;100036.06;5054182;28;20020;-83
2023/09/23 02:07:50;;;;;;;16.63;8.38;;;;;;;20.41;74.98;100034.03;5065888;28;20017;-83
2023/09/23 02:10:17;;;;;;;17.08;8.27;;;;;;;20.49;74.87;100040.72;5056792;28;20029;-84
2023/09/23 02:12:43;;;;;;;17.10;8.57;;;;;;;20.26;75.27;100015.19;5062503;28;20032;-84
2023/09/23 02:15:10;;;;;;;17.40;8.88;;;;;;;20.58;74.54;100049.06;5069810;28;20036;-83
2023/09/23 02:17:36;;;;;;;17.33;9.77;;;;;;;20.14;75.63;100033.72;5052167;28;20056;-84
2023/09/23 02:20:09;;;;;;;20.25;10.32;;;;;;;20.11;76.15;100035.09;5068284;28;20124;-84
2023/09/23 02:22:35;;;;;;;25.88;10.50;;;;;;;20.22;77.16;100044.75;5054761;28;20509;-84
2023/09/23 02:25:01;;;;;;;22.25;9.70;;;;;;;20.19;75.91;100029.06;5072015;28;20024;-83
2023/09/23 02:27:26;;;;;;;20.45;8.98;;;;;;;20.26;74.05;100028.75;5053445;28;20025;-84
2023/09/23 02:29:52;;;;;;;18.65;8.88;;;;;;;20.27;74.66;100041.22;5052741;28;20135;-83
2023/09/23 02:32:18;;;;;;;14.20;8.23;;;;;;;20.36;71.36;100047.59;5050694;28;20029;-83
2023/09/23 02:34:45;;;;;;;17.60;8.73;;;;;;;20.39;70.16;100057.88;5071290;28;20532;-85
2023/09/23 02:37:10;;;;;;;15.55;7.05;;;;;;;20.35;69.49;100054.13;5057086;28;20067;-83
2023/09/23 02:39:36;;;;;;;16.50;6.97;;;;;;;20.26;68.54;100040.38;5049987;28;20106;-83
2023/09/23 02:42:04;;;;;;;14.75;6.45;;;;;;;20.10;70.92;100017.22;5058885;28;20025;-83
2023/09/23 02:44:30;;;;;;;17.25;6.53;;;;;;;20.28;69.28;100046.31;5053025;28;20025;-85
2023/09/23 02:46:56;;;;;;;19.30;10.45;;;;;;;20.22;68.83;100038.53;5049673;28;20052;-83
2023/09/23 02:49:21;;;;;;;19.65;10.00;;;;;;;20.30;70.84;100051.44;5052191;28;20037;-83
2023/09/23 02:51:49;;;;;;;15.82;9.70;;;;;;;20.19;68.77;100063.47;5062055;28;20477;-83
2023/09/23 02:54:15;;;;;;;13.63;8.13;;;;;;;20.18;69.10;100059.94;5050211;28;20036;-83
2023/09/23 02:56:41;;;;;;;13.75;6.97;;;;;;;20.33;70.04;100066.31;5049571;28;20112;-83
2023/09/23 02:59:21;;;;;;;16.38;6.70;;;;;;;20.48;68.46;100045.34;5049893;28;20028;-83
2023/09/23 03:01:51;;;;;;;13.93;6.72;;;;;;;20.34;67.70;100055.22;5054735;28;20033;-83
2023/09/23 03:04:19;;;;;;;14.00;7.55;;;;;;;20.23;68.36;100065.31;5050140;28;20041;-84
2023/09/23 03:07:01;;;;;;;17.58;9.05;;;;;;;20.39;69.19;100057.88;5051027;28;20029;-83
2023/09/23 03:09:32;;;;;;;15.07;7.95;;;;;;;20.38;67.68;100069.78;5050938;28;20478;-84
2023/09/23 03:12:00;;;;;;;13.00;6.80;;;;;;;20.16;68.06;100062.13;5054726;28;20082;-83
2023/09/23 03:14:40;;;;;;;15.77;6.68;;;;;;;20.21;68.80;100078.34;5050937;28;20113;-84
2023/09/23 03:17:09;;;;;;;14.68;6.78;;;;;;;20.39;70.60;100076.84;5050645;28;20397;-85
2023/09/23 03:19:35;;;;;;;16.65;7.07;;;;;;;20.39;70.05;100076.84;5049459;28;20132;-83
2023/09/23 03:22:01;;;;;;;13.07;6.00;;;;;;;20.31;69.16;100065.78;5060382;28;20029;-84
2023/09/23 03:24:29;;;;;;;17.67;6.50;;;;;;;20.44;71.01;100076.00;5058238;28;20452;-83
2023/09/23 03:26:58;;;;;;;12.70;7.00;;;;;;;20.03;70.95;100058.16;5049279;28;20500;-83
2023/09/23 03:29:28;;;;;;;13.52;6.60;;;;;;;20.15;72.09;100062.44;5049488;28;20048;-84
2023/09/23 03:31:55;;;;;;;14.77;7.05;;;;;;;19.85;73.89;100050.72;5053746;28;20028;-87
2023/09/23 03:34:21;;;;;;;17.65;7.43;;;;;;;19.78;75.27;100063.75;5050908;28;20036;-83
2023/09/23 03:36:47;;;;;;;13.25;7.22;;;;;;;20.19;74.97;100063.47;5055051;28;20063;-83
2023/09/23 03:39:12;;;;;;;14.60;7.10;;;;;;;20.53;71.91;100070.75;5065385;28;20053;-83
2023/09/23 03:41:40;;;;;;;17.48;7.00;;;;;;;20.15;69.72;100063.22;5051190;28;20460;-84
2023/09/23 03:44:06;;;;;;;19.40;7.35;;;;;;;19.98;70.55;100074.44;5055492;28;20025;-86
2023/09/23 03:46:34;;;;;;;21.92;7.70;;;;;;;19.78;74.15;100069.16;5068444;28;20055;-84
2023/09/23 03:49:02;;;;;;;20.30;7.78;;;;;;;19.62;73.70;100081.94;5049245;28;20461;-85
2023/09/23 03:51:27;;;;;;;;;;;;;;;19.76;70.52;100103.81;5052820;28;20033;-83
2023/09/23 03:53:53;;;;;;;16.20;7.53;;;;;;;19.68;73.77;100088.94;5063767;28;19923;-84
2023/09/23 03:56:24;;;;;;;19.65;8.50;;;;;;;19.40;73.92;100106.66;5072514;28;20025;-83
2023/09/23 03:58:54;;;;;;;17.63;7.20;;;;;;;19.57;74.00;100114.41;5053997;28;20029;-84
2023/09/23 04:01:19;;;;;;;17.45;7.32;;;;;;;19.37;75.08;100096.38;5071649;28;20101;-83
2023/09/23 04:03:45;;;;;;;14.77;7.28;;;;;;;19.01;78.70;100086.50;5061884;28;20029;-82
2023/09/23 04:06:11;;;;;;;17.67;7.20;;;;;;;19.18;77.92;100107.00;5052841;28;20410;-84
2023/09/23 04:08:37;;;;;;;15.43;7.18;;;;;;;19.03;76.66;100083.53;5073530;28;20024;-84
2023/09/23 04:11:04;;;;;;;18.02;7.43;;;;;;;18.92;74.89;100079.22;5064231;28;20036;-84
2023/09/23 04:13:30;;;;;;;14.57;7.30;;;;;;;19.07;75.56;100090.00;5073125;28;20028;-84
2023/09/23 04:16:02;;;;;;;18.13;7.15;;;;;;;19.09;77.01;100108.66;5063782;28;20028;-85
2023/09/23 04:18:29;;;;;;;15.70;7.47;;;;;;;18.79;76.44;100062.50;5060428;28;20064;-84
2023/09/23 04:20:54;;;;;;;18.77;7.75;;;;;;;19.03;77.09;100097.03;5072143;28;20025;-84
2023/09/23 04:23:20;;;;;;;15.35;7.40;;;;;;;19.14;77.47;100117.53;5067415;28;20407;-84
2023/09/23 04:25:48;;;;;;;16.58;7.80;;;;;;;19.14;79.37;100109.41;5076950;28;20032;-84
2023/09/23 04:28:14;;;;;;;14.77;8.13;;;;;;;19.07;78.01;100125.13;5066618;28;20089;-82
2023/09/23 04:30:39;;;;;;;19.88;6.93;;;;;;;19.12;78.50;100106.19;5064787;28;20499;-83
2023/09/23 04:33:07;;;;;;;14.60;8.20;;;;;;;18.84;76.84;100116.53;5069572;28;20025;-83
2023/09/23 04:35:34;;;;;;;14.05;7.07;;;;;;;19.19;78.91;100116.72;5061933;28;20033;-83
2023/09/23 04:38:00;;;;;;;14.00;6.57;;;;;;;19.12;78.35;100089.97;5053283;28;20040;-85
2023/09/23 04:40:28;;;;;;;20.08;7.85;;;;;;;19.57;77.52;100123.31;5053298;28;20025;-84
2023/09/23 04:42:54;;;;;;;19.42;7.50;;;;;;;19.57;76.28;100088.16;5060541;28;20028;-86
2023/09/23 04:45:20;;;;;;;16.13;7.68;;;;;;;19.62;76.70;100117.09;5056600;28;20078;-83
2023/09/23 04:47:50;;;;;;;17.77;7.55;;;;;;;19.71;76.07;100122.78;5052500;28;20060;-84
2023/09/23 04:50:18;;;;;;;17.73;7.90;;;;;;;20.31;74.33;100131.63;5053909;28;20481;-85
2023/09/23 04:52:46;;;;;;;16.58;8.45;;;;;;;20.17;71.74;100123.31;5057305;28;20067;-84
2023/09/23 04:55:12;;;;;;;17.10;8.35;;;;;;;19.85;73.81;100134.59;5066379;28;20025;-84
2023/09/23 04:57:37;;;;;;;23.23;8.20;;;;;;;20.09;74.47;100150.19;5053830;28;20044;-84
2023/09/23 05:00:04;;;;;;;21.80;8.57;;;;;;;20.23;72.99;100119.47;5051866;28;20021;-83
2023/09/23 05:02:30;;;;;;;20.45;7.30;;;;;;;20.52;71.58;100142.28;5055830;28;20033;-85
2023/09/23 05:04:55;;;;;;;20.70;7.32;;;;;;;20.53;71.41;100133.06;5051352;28;20512;-86
2023/09/23 05:07:25;;;;;;;19.17;7.43;;;;;;;20.43;70.60;100133.94;5052147;28;20028;-81
2023/09/23 05:09:50;;;;;;;17.30;7.78;;;;;;;20.16;71.89;100151.47;5051751;28;20028;-83
2023/09/23 05:12:16;;;;;;;15.88;7.78;;;;;;;19.88;72.74;100128.66;5051621;28;20041;-84
2023/09/23 05:14:42;;;;;;;16.80;7.53;;;;;;;20.30;71.65;100148.16;5064487;28;20029;-83
2023/09/23 05:17:10;;;;;;;15.82;7.75;;;;;;;19.96;73.87;100146.19;5053303;28;20063;-83
2023/09/23 05:19:35;;;;;;;16.85;9.48;;;;;;;20.31;72.60;100153.28;5051435;28;20029;-84
2023/09/23 05:22:01;;;;;;;19.90;10.13;;;;;;;20.48;71.91;100148.28;5051534;28;20067;-85
2023/09/23 05:24:27;;;;;;;16.80;10.65;;;;;;;20.38;72.69;100134.00;5064624;28;20102;-83
2023/09/23 05:26:59;;;;;;;21.33;10.43;;;;;;;20.62;72.54;100147.66;5053349;28;20095;-83
2023/09/23 05:29:25;;;;;;;16.23;10.05;;;;;;;20.79;72.71;100152.66;5051703;28;20056;-84
2023/09/23 05:31:50;;;;;;;23.40;11.20;;;;;;;20.83;73.28;100154.50;5064747;28;20429;-86
2023/09/23 05:34:18;;;;;;;21.77;11.82;;;;;;;20.79;74.17;100149.94;5060411;28;20025;-82
2023/09/23 05:36:45;;;;;;;24.98;13.32;;;;;;;21.20;73.44;100174.75;5058795;28;20026;-83
2023/09/23 05:39:14;;;;;;;19.25;12.48;;;;;;;21.20;73.15;100152.25;5051545;28;20104;-83
2023/09/23 05:41:40;;;;;;;19.23;11.60;;;;;;;21.47;72.21;100170.69;5050628;28;20037;-83
2023/09/23 05:44:07;;;;;;;16.55;11.30;;;;;;;21.44;72.33;100174.81;5060981;28;20039;-85
2023/09/23 05:46:34;;;;;;;20.92;11.93;;;;;;;21.61;72.28;100185.19;5052597;28;20048;-84
2023/09/23 05:49:00;;;;;;;21.92;12.35;;;;;;;21.58;71.63;100157.84;5051491;28;20048;-83
2023/09/23 05:51:25;;;;;;;24.60;12.40;;;;;;;21.77;71.87;100171.44;5057240;28;20042;-84
2023/09/23 05:53:51;;;;;;;18.98;11.18;;;;;;;21.89;71.01;100158.25;5050698;28;20028;-84
2023/09/23 05:56:16;;;;;;;16.40;10.88;;;;;;;21.91;70.86;100144.38;5058666;28;20033;-83
2023/09/23 05:58:41;;;;;;;22.77;11.98;;;;;;;22.11;70.25;100171.25;5052167;28;20413;-85
2023/09/23 06:01:07;;;;;;;19.63;10.20;;;;;;;22.22;70.84;100177.34;5050700;28;20056;-84
2023/09/23 06:03:33;;;;;;;25.33;14.52;;;;;;;22.44;69.11;100168.63;5054952;28;20028;-82
2023/09/23 06:05:58;;;;;;;20.75;10.90;;;;;;;22.59;69.19;100171.09;5067467;28;20052;-84
2023/09/23 06:08:24;;;;;;;18.27;10.70;;;;;;;22.83;67.69;100176.41;5050638;28;20028;-87
2023/09/23 06:10:50;;;;;;;16.58;10.30;;;;;;;22.97;67.48;100186.53;5046795;28;20092;-84
2023/09/23 06:13:15;;;;;;;19.42;10.63;;;;;;;22.90;67.63;100175.22;5055088;28;20032;-84
2023/09/23 06:15:41;;;;;;;16.00;9.82;;;;;;;23.06;67.56;100179.31;5050094;28;20044;-84
2023/09/23 06:18:09;;;;;;;17.58;9.48;;;;;;;23.16;66.87;100168.25;5049773;28;20033;-83
2023/09/23 06:20:35;;;;;;;20.20;9.23;;;;;;;23.25;67.54;100193.66;5059458;28;20035;-84
2023/09/23 06:23:02;;;;;;;15.68;8.77;;;;;;;23.47;66.79;100183.97;5051393;28;20524;-84
2023/09/23 06:25:28;;;;;;;14.60;8.63;;;;;;;23.54;66.27;100184.41;5053882;28;20141;-84
2023/09/23 06:27:55;;;;;;;21.35;9.82;;;;;;;23.37;67.11;100171.38;5050497;28;20509;-84
2023/09/23 06:30:21;;;;;;;16.42;8.95;;;;;;;23.20;67.50;100185.56;5050298;28;20063;-84
2023/09/23 06:32:47;;;;;;;16.15;8.50;;;;;;;23.50;67.58;100171.69;5049833;28;20067;-84
2023/09/23 06:35:14;;;;;;;16.65;8.65;;;;;;;23.82;65.61;100178.94;5062781;28;20028;-86
2023/09/23 06:37:40;;;;;;;15.80;7.90;;;;;;;24.15;64.75;100181.50;5056457;28;20021;-84
2023/09/23 06:40:06;;;;;;;15.82;8.68;;;;;;;24.15;64.14;100165.97;5051521;28;20287;-83
2023/09/23 06:42:31;;;;;;;19.48;8.68;;;;;;;24.27;64.11;100179.88;5059831;28;20680;-84
2023/09/23 06:44:58;;;;;;;16.75;9.30;;;;;;;24.03;64.43;100191.03;5060718;28;20430;-84
2023/09/23 06:47:24;;;;;;;19.27;10.38;;;;;;;24.37;64.87;100195.16;5050799;28;20520;-84
2023/09/23 06:49:49;;;;;;;15.68;8.35;;;;;;;24.44;64.30;100181.91;5049916;28;20033;-84
2023/09/23 06:52:15;;;;;;;14.75;7.93;;;;;;;24.33;63.69;100166.91;5051003;28;20040;-83
2023/09/23 06:54:41;;;;;;;15.57;7.93;;;;;;;24.79;63.32;100201.28;5051287;28;20425;-86
2023/09/23 06:57:06;;;;;;;18.48;7.93;;;;;;;24.98;62.21;100203.00;5049893;28;20119;-83
2023/09/23 06:59:32;;;;;;;15.27;8.73;;;;;;;24.96;61.12;100175.22;5051016;28;20078;-84
2023/09/23 07:01:57;;;;;;;19.45;9.40;;;;;;;25.11;60.19;100199.41;5051356;28;20092;-83
2023/09/23 07:04:23;;;;;;;15.93;8.50;;;;;;;25.33;59.83;100203.22;5053708;28;20036;-84
2023/09/23 07:06:48;;;;;;;19.02;7.65;;;;;;;25.39;59.08;100191.03;5050575;28;20037;-85
2023/09/23 07:09:13;;;;;;;14.65;7.00;;;;;;;25.59;58.24;100209.56;5049516;28;20413;-85
2023/09/23 07:11:40;;;;;;;10.63;6.65;;;;;;;25.78;56.84;100208.50;5049312;28;20098;-84
2023/09/23 07:14:06;;;;;;;21.10;6.97;;;;;;;25.83;57.24;100200.19;5050095;28;20486;-84
2023/09/23 07:16:33;;;;;;;13.45;6.72;;;;;;;26.25;54.77;100219.69;5068077;28;20039;-84
2023/09/23 07:19:00;;;;;;;27.50;8.02;;;;;;;26.02;57.66;100202.63;5051121;28;20051;-84
2023/09/23 07:21:25;;;;;;;13.05;6.82;;;;;;;26.20;56.92;100219.88;5050223;28;20017;-84
2023/09/23 07:23:51;;;;;;;12.80;6.68;;;;;;;26.29;55.21;100217.94;5050405;28;20040;-86
2023/09/23 07:26:23;;;;;;;11.35;6.25;;;;;;;26.51;54.88;100203.31;5064110;28;20025;-84
2023/09/23 07:28:51;;;;;;;10.48;6.68;;;;;;;26.80;53.89;100219.06;5072168;28;20032;-85
2023/09/23 07:31:17;;;;;;;13.20;6.50;;;;;;;26.68;53.85;100188.81;5060707;28;20029;-84
2023/09/23 07:33:43;;;;;;;15.70;6.25;;;;;;;26.88;53.61;100224.88;5054580;28;20032;-84
2023/09/23 07:36:13;;;;;;;17.65;6.18;;;;;;;26.96;53.07;100219.38;5065862;28;20032;-86
2023/09/23 07:38:41;;;;;;;13.05;6.00;;;;;;;27.06;52.73;100215.47;5058966;28;20036;-85
2023/09/23 07:41:07;;;;;;;11.68;6.78;;;;;;;27.31;52.89;100219.28;5054017;28;20501;-86
2023/09/23 07:43:33;;;;;;;11.00;6.13;;;;;;;27.33;51.92;100227.19;5054249;28;20037;-84
2023/09/23 07:45:59;;;;;;;13.73;6.57;;;;;;;27.73;51.82;100233.13;5062615;28;20032;-85
2023/09/23 07:48:24;;;;;;;16.15;6.65;;;;;;;27.72;50.27;100215.06;5061554;28;20521;-85
2023/09/23 07:50:50;;;;;;;14.45;6.35;;;;;;;27.68;49.59;100216.06;5054227;28;20029;-85
2023/09/23 07:53:16;;;;;;;15.13;6.30;;;;;;;27.49;50.23;100220.03;5052618;28;20029;-84
2023/09/23 07:55:43;;;;;;;10.98;5.80;;;;;;;27.65;50.28;100212.06;5056347;28;20141;-84
2023/09/23 07:58:09;;;;;;;10.93;5.95;;;;;;;27.73;51.54;100224.13;5060778;28;20552;-86
2023/09/23 08:00:36;;;;;;;13.95;6.38;;;;;;;28.04;49.66;100205.41;5052243;28;20478;-84
2023/09/23 08:03:02;;;;;;;14.63;6.53;;;;;;;28.07;49.63;100222.31;5052555;28;20025;-85
2023/09/23 08:05:29;;;;;;;15.60;6.70;;;;;;;28.07;49.71;100205.88;5052231;28;20036;-86
2023/09/23 08:07:55;;;;;;;14.63;6.85;;;;;;;28.47;48.90;100213.63;5060269;28;20448;-84
2023/09/23 08:10:20;;;;;;;11.93;5.72;;;;;;;28.22;48.63;100200.59;5052670;28;20482;-84
2023/09/23 08:12:46;;;;;;;11.93;6.10;;;;;;;28.32;49.10;100196.66;5052477;28;20025;-85
2023/09/23 08:15:11;;;;;;;12.93;6.22;;;;;;;28.61;48.17;100220.47;5071398;28;20101;-85
2023/09/23 08:17:40;;;;;;;14.90;6.38;;;;;;;29.08;45.78;100202.09;5052168;28;20100;-85
2023/09/23 08:20:23;;;;;;;13.57;5.90;;;;;;;29.20;47.89;100208.44;5053472;28;20056;-85
2023/09/23 08:22:50;;;;;;;19.80;6.88;;;;;;;29.20;47.03;100202.94;5052317;28;20033;-84
2023/09/23 08:25:16;;;;;;;13.48;5.85;;;;;;;29.12;47.23;100186.56;5051796;28;20083;-85
2023/09/23 08:27:42;;;;;;;14.35;5.90;;;;;;;29.24;46.73;100198.38;5053412;28;20036;-85
2023/09/23 08:30:17;;;;;;;13.32;7.22;;;;;;;29.22;45.20;100192.41;5051910;28;20036;-85
2023/09/23 08:32:42;;;;;;;14.43;6.53;;;;;;;29.11;45.61;100183.00;5051475;28;20441;-83
2023/09/23 08:35:07;;;;;;;15.02;6.32;;;;;;;29.39;44.92;100179.59;5068499;28;20036;-85
2023/09/23 08:37:34;;;;;;;17.73;6.55;;;;;;;29.47;45.58;100186.94;5063924;28;20517;-85
2023/09/23 08:39:59;;;;;;;16.42;7.03;;;;;;;29.94;44.53;100193.91;5068594;28;20039;-85
2023/09/23 08:42:25;;;;;;;13.77;6.13;;;;;;;30.14;42.80;100203.94;5060570;28;20100;-85
2023/09/23 08:44:51;;;;;;;14.27;6.72;;;;;;;30.40;41.63;100200.81;5053260;28;20044;-85
2023/09/23 08:47:20;;;;;;;12.13;6.28;;;;;;;30.13;43.53;100198.78;5054610;28;20123;-85
2023/09/23 08:49:47;;;;;;;14.90;6.60;;;;;;;29.40;43.95;100150.97;5051841;28;20558;-83
2023/09/23 08:52:16;;;;;;;17.98;6.32;;;;;;;29.71;44.85;100177.09;5062409;28;20029;-85
2023/09/23 08:54:42;;;;;;;16.95;6.38;;;;;;;29.64;44.84;100150.94;5061316;28;20037;-85
2023/09/23 08:57:07;;;;;;;14.38;6.40;;;;;;;29.74;43.81;100179.16;5064059;28;20039;-84
2023/09/23 08:59:33;;;;;;;13.15;6.93;;;;;;;29.92;42.32;100176.94;5060942;28;20029;-84
2023/09/23 09:01:58;;;;;;;13.07;5.97;;;;;;;30.23;41.55;100157.03;5051122;28;20031;-84
2023/09/23 09:04:24;;;;;;;12.00;6.40;;;;;;;30.30;42.10;100143.53;5051492;28;20051;-86
2023/09/23 09:06:51;;;;;;;15.32;6.63;;;;;;;30.55;41.66;100151.66;5058606;28;20028;-85
2023/09/23 09:09:17;;;;;;;16.13;6.60;;;;;;;29.84;43.31;100162.19;5062958;28;20032;-85
2023/09/23 09:11:48;;;;;;;17.15;7.05;;;;;;;30.13;42.54;100157.53;5051054;28;20063;-85
2023/09/23 09:14:15;;;;;;;13.85;6.18;;;;;;;30.55;42.03;100140.66;5053351;28;20020;-85
2023/09/23 09:16:40;;;;;;;15.40;5.93;;;;;;;30.52;41.45;100141.34;5056287;28;20756;-84
2023/09/23 09:19:06;;;;;;;14.60;6.57;;;;;;;30.75;40.78;100142.38;5058707;28;20124;-84
2023/09/23 09:21:34;;;;;;;12.02;5.88;;;;;;;31.27;39.84;100161.78;5051450;28;20108;-85
2023/09/23 09:24:00;;;;;;;14.65;5.63;;;;;;;31.34;40.79;100153.66;5031674;28;20034;-84
2023/09/23 09:26:25;;;;;;;14.00;5.28;;;;;;;31.46;39.43;100158.31;5056073;28;20032;-84
2023/09/23 09:28:54;;;;;;;19.67;6.25;;;;;;;31.19;39.11;100139.56;5060392;28;20106;-86
2023/09/23 09:31:21;;;;;;;14.38;5.30;;;;;;;30.43;40.25;100109.28;5050903;28;20047;-86
2023/09/23 09:33:47;;;;;;;13.75;6.50;;;;;;;31.58;39.52;100145.22;5051821;28;20029;-85
2023/09/23 09:36:18;;;;;;;17.30;6.38;;;;;;;31.66;38.10;100128.84;5054196;28;20087;-85
2023/09/23 09:38:44;;;;;;;14.80;6.20;;;;;;;32.24;37.68;100126.13;5052180;28;20033;-84
2023/09/23 09:41:16;;;;;;;16.25;5.25;;;;;;;32.12;37.23;100102.28;5050879;28;20448;-83
2023/09/23 09:43:45;;;;;;;17.92;9.07;;;;;;;32.81;36.63;100115.38;5050608;28;20028;-84
2023/09/23 09:46:13;;;;;;;15.85;6.53;;;;;;;33.13;35.83;100115.91;5051907;28;20076;-84
2023/09/23 09:48:41;;;;;;;30.92;7.43;;;;;;;33.11;36.52;100129.31;5063163;28;20055;-84
2023/09/23 09:51:15;;;;;;;12.55;5.30;;;;;;;33.05;35.33;100094.84;5050576;28;20033;-86
2023/09/23 09:53:44;;;;;;;13.70;5.20;;;;;;;33.15;35.69;100116.34;5050374;28;20052;-84
2023/09/23 09:56:13;;;;;;;13.77;5.80;;;;;;;32.69;35.92;100094.25;5051358;28;20025;-85
2023/09/23 09:58:44;;;;;;;15.63;5.07;;;;;;;32.86;36.50;100095.75;5067606;28;20544;-85
2023/09/23 10:01:12;;;;;;;10.75;5.10;;;;;;;32.54;37.42;100084.94;5053594;28;20102;-85
2023/09/23 10:03:42;;;;;;;11.75;5.10;;;;;;;33.03;34.90;100094.41;5062425;28;20024;-85
2023/09/23 10:06:13;;;;;;;12.57;5.25;;;;;;;33.90;34.51;100105.56;5056869;28;20112;-84
2023/09/23 10:08:38;;;;;;;12.95;6.07;;;;;;;33.60;33.82;100075.13;5065324;28;20036;-86
2023/09/23 10:11:09;;;;;;;8.65;4.80;;;;;;;33.96;32.96;100098.53;5070645;28;20105;-86
2023/09/23 10:13:35;;;;;;;16.10;5.93;;;;;;;33.37;34.29;100086.28;5059690;28;20025;-85
2023/09/23 10:16:04;;;;;;;17.27;5.95;;;;;;;33.57;35.09;100089.69;5050049;28;20033;-85
2023/09/23 10:18:35;;;;;;;16.52;4.88;;;;;;;33.68;34.33;100084.34;5054239;28;20508;-85
2023/09/23 10:21:04;;;;;;;10.50;4.82;;;;;;;34.13;32.94;100076.97;5049912;28;20037;-85
2023/09/23 10:23:40;;;;;;;12.52;4.97;;;;;;;34.34;32.59;100077.22;5058123;28;20028;-85
2023/09/23 10:26:19;;;;;;;14.50;5.63;;;;;;;33.59;33.81;100066.06;5058421;28;20032;-85
2023/09/23 10:28:58;;;;;;;12.48;4.32;;;;;;;33.95;32.53;100060.19;5049490;28;20029;-85
2023/09/23 10:31:28;;;;;;;14.32;4.68;;;;;;;33.97;32.48;100066.91;5048917;28;20032;-85
2023/09/23 10:33:55;;;;;;;12.73;4.30;;;;;;;34.24;32.34;100054.97;5049975;28;20036;-84
2023/09/23 10:36:23;;;;;;;11.57;4.50;;;;;;;34.48;31.92;100054.41;5048795;28;20772;-84
2023/09/23 10:38:50;;;;;;;16.52;5.05;;;;;;;34.75;32.12;100049.53;5050598;28;20044;-85
2023/09/23 10:41:15;;;;;;;13.63;4.70;;;;;;;34.81;31.57;100050.75;5056641;28;20071;-85
2023/09/23 10:43:41;;;;;;;13.75;4.93;;;;;;;34.63;31.67;100044.25;5049578;28;20053;-85
2023/09/23 10:46:06;;;;;;;15.00;5.05;;;;;;;34.13;32.17;100050.13;5050573;28;20064;-85
2023/09/23 10:48:33;;;;;;;15.45;5.65;;;;;;;34.55;31.80;100026.00;5059216;28;20032;-85
2023/09/23 10:51:00;;;;;;;12.50;4.80;;;;;;;34.44;31.36;100030.66;5060001;28;20697;-85
2023/09/23 10:53:29;;;;;;;14.02;5.20;;;;;;;34.48;31.71;100003.78;5049150;28;20033;-85
2023/09/23 10:56:02;;;;;;;11.38;4.70;;;;;;;34.27;32.27;100026.56;5054770;28;20040;-85
2023/09/23 10:58:31;;;;;;;12.77;4.50;;;;;;;34.29;32.35;100022.22;5062663;28;20021;-84
2023/09/23 11:00:57;;;;;;;13.25;5.55;;;;;;;34.29;31.95;100022.22;5037248;28;20032;-84
2023/09/23 11:03:23;;;;;;;14.02;5.15;;;;;;;34.84;31.65;100012.38;5048419;28;20498;-85
2023/09/23 11:05:49;;;;;;;11.98;4.82;;;;;;;34.78;31.56;100012.75;5052036;28;20032;-84
2023/09/23 11:08:18;;;;;;;17.85;4.90;;;;;;;34.35;31.49;99984.72;5063112;28;20025;-83
2023/09/23 11:10:48;;;;;;;11.45;4.32;;;;;;;34.92;32.21;100005.72;5050195;28;20037;-84
2023/09/23 11:13:14;;;;;;;12.95;4.20;;;;;;;35.49;30.66;100011.63;5049096;28;20433;-85
2023/09/23 11:15:45;;;;;;;13.05;4.35;;;;;;;34.37;31.49;99987.88;5050188;28;20036;-85